sensor_id;sensor_type;location;lat;lon;timestamp;P1;durP1;ratioP1;P2;durP2;ratioP2
36931;SDS011;22847;42.654;23.370;2023-04-19T00:02:01;2.70;;;1.83;;
36931;SDS011;22847;42.654;23.370;2023-04-19T00:04:26;2.20;;;1.65;;
36931;SDS011;22847;42.654;23.370;2023-04-19T00:06:52;2.33;;;1.80;;
36931;SDS011;22847;42.654;23.370;2023-04-19T00:09:17;3.58;;;1.88;;
36931;SDS011;22847;42.654;23.370;2023-04-19T00:11:43;2.95;;;2.03;;
36931;SDS011;22847;42.654;23.370;2023-04-19T00:14:08;2.05;;;1.55;;
36931;SDS011;22847;42.654;23.370;2023-04-19T00:16:34;2.80;;;1.67;;
36931;SDS011;22847;42.654;23.370;2023-04-19T00:18:59;2.30;;;1.50;;
36931;SDS011;22847;42.654;23.370;2023-04-19T00:21:25;3.05;;;1.80;;
36931;SDS011;22847;42.654;23.370;2023-04-19T00:23:51;1.88;;;1.52;;
36931;SDS011;22847;42.654;23.370;2023-04-19T00:26:18;1.98;;;1.60;;
36931;SDS011;22847;42.654;23.370;2023-04-19T00:28:43;3.90;;;1.77;;
36931;SDS011;22847;42.654;23.370;2023-04-19T00:31:09;3.40;;;1.98;;
36931;SDS011;22847;42.654;23.370;2023-04-19T00:33:35;2.17;;;1.52;;
36931;SDS011;22847;42.654;23.370;2023-04-19T00:36:00;3.42;;;1.50;;
36931;SDS011;22847;42.654;23.370;2023-04-19T00:38:26;3.13;;;1.80;;
36931;SDS011;22847;42.654;23.370;2023-04-19T00:40:51;2.90;;;1.80;;
36931;SDS011;22847;42.654;23.370;2023-04-19T00:43:17;2.25;;;1.55;;
36931;SDS011;22847;42.654;23.370;2023-04-19T00:45:43;2.72;;;1.85;;
36931;SDS011;22847;42.654;23.370;2023-04-19T00:48:09;2.72;;;1.80;;
36931;SDS011;22847;42.654;23.370;2023-04-19T00:50:35;2.60;;;1.90;;
36931;SDS011;22847;42.654;23.370;2023-04-19T00:53:01;3.17;;;1.60;;
36931;SDS011;22847;42.654;23.370;2023-04-19T00:55:27;2.95;;;1.70;;
36931;SDS011;22847;42.654;23.370;2023-04-19T00:57:52;2.20;;;1.45;;
36931;SDS011;22847;42.654;23.370;2023-04-19T01:00:18;3.00;;;1.55;;
36931;SDS011;22847;42.654;23.370;2023-04-19T01:02:44;2.15;;;1.33;;
36931;SDS011;22847;42.654;23.370;2023-04-19T01:05:09;3.13;;;1.40;;
36931;SDS011;22847;42.654;23.370;2023-04-19T01:07:35;1.50;;;1.25;;
36931;SDS011;22847;42.654;23.370;2023-04-19T01:10:01;1.30;;;1.20;;
36931;SDS011;22847;42.654;23.370;2023-04-19T01:12:26;3.38;;;1.25;;
36931;SDS011;22847;42.654;23.370;2023-04-19T01:14:51;2.10;;;1.48;;
36931;SDS011;22847;42.654;23.370;2023-04-19T01:17:18;3.60;;;1.83;;
36931;SDS011;22847;42.654;23.370;2023-04-19T01:19:43;1.95;;;1.73;;
36931;SDS011;22847;42.654;23.370;2023-04-19T01:22:13;4.03;;;1.90;;
36931;SDS011;22847;42.654;23.370;2023-04-19T01:24:40;3.42;;;1.80;;
36931;SDS011;22847;42.654;23.370;2023-04-19T01:27:06;3.47;;;1.75;;
36931;SDS011;22847;42.654;23.370;2023-04-19T01:29:31;3.75;;;1.85;;
36931;SDS011;22847;42.654;23.370;2023-04-19T01:31:57;2.10;;;1.90;;
36931;SDS011;22847;42.654;23.370;2023-04-19T01:34:22;2.75;;;1.67;;
36931;SDS011;22847;42.654;23.370;2023-04-19T01:36:48;4.53;;;1.98;;
36931;SDS011;22847;42.654;23.370;2023-04-19T01:39:13;2.65;;;1.58;;
36931;SDS011;22847;42.654;23.370;2023-04-19T01:41:39;2.10;;;1.65;;
36931;SDS011;22847;42.654;23.370;2023-04-19T01:44:04;1.75;;;1.52;;
36931;SDS011;22847;42.654;23.370;2023-04-19T01:46:30;2.22;;;1.52;;
36931;SDS011;22847;42.654;23.370;2023-04-19T01:48:55;2.83;;;1.70;;
36931;SDS011;22847;42.654;23.370;2023-04-19T01:51:20;3.70;;;1.52;;
36931;SDS011;22847;42.654;23.370;2023-04-19T01:53:46;3.20;;;1.73;;
36931;SDS011;22847;42.654;23.370;2023-04-19T01:56:17;2.85;;;1.73;;
36931;SDS011;22847;42.654;23.370;2023-04-19T01:58:42;3.15;;;1.83;;
36931;SDS011;22847;42.654;23.370;2023-04-19T02:01:08;2.70;;;1.90;;
36931;SDS011;22847;42.654;23.370;2023-04-19T02:03:36;4.22;;;2.28;;
36931;SDS011;22847;42.654;23.370;2023-04-19T02:06:02;2.47;;;2.00;;
36931;SDS011;22847;42.654;23.370;2023-04-19T02:08:27;4.90;;;2.05;;
36931;SDS011;22847;42.654;23.370;2023-04-19T02:10:53;4.07;;;2.20;;
36931;SDS011;22847;42.654;23.370;2023-04-19T02:13:18;2.10;;;1.70;;
36931;SDS011;22847;42.654;23.370;2023-04-19T02:15:44;4.47;;;2.03;;
36931;SDS011;22847;42.654;23.370;2023-04-19T02:18:10;3.22;;;1.90;;
36931;SDS011;22847;42.654;23.370;2023-04-19T02:20:35;4.35;;;1.90;;
36931;SDS011;22847;42.654;23.370;2023-04-19T02:23:01;3.22;;;2.00;;
36931;SDS011;22847;42.654;23.370;2023-04-19T02:25:26;9.93;;;2.60;;
36931;SDS011;22847;42.654;23.370;2023-04-19T02:27:52;6.45;;;2.28;;
36931;SDS011;22847;42.654;23.370;2023-04-19T02:30:17;2.70;;;2.25;;
36931;SDS011;22847;42.654;23.370;2023-04-19T02:32:43;5.38;;;2.60;;
36931;SDS011;22847;42.654;23.370;2023-04-19T02:35:08;5.70;;;2.63;;
36931;SDS011;22847;42.654;23.370;2023-04-19T02:37:34;6.07;;;2.53;;
36931;SDS011;22847;42.654;23.370;2023-04-19T02:39:59;4.20;;;2.78;;
36931;SDS011;22847;42.654;23.370;2023-04-19T02:42:25;7.25;;;2.38;;
36931;SDS011;22847;42.654;23.370;2023-04-19T02:44:50;4.20;;;2.40;;
36931;SDS011;22847;42.654;23.370;2023-04-19T02:47:15;3.75;;;2.45;;
36931;SDS011;22847;42.654;23.370;2023-04-19T02:49:41;4.32;;;2.58;;
36931;SDS011;22847;42.654;23.370;2023-04-19T02:52:06;5.45;;;2.83;;
36931;SDS011;22847;42.654;23.370;2023-04-19T02:54:32;3.78;;;2.63;;
36931;SDS011;22847;42.654;23.370;2023-04-19T02:56:58;3.58;;;2.60;;
36931;SDS011;22847;42.654;23.370;2023-04-19T02:59:25;3.13;;;2.50;;
36931;SDS011;22847;42.654;23.370;2023-04-19T03:01:50;3.58;;;2.95;;
36931;SDS011;22847;42.654;23.370;2023-04-19T03:04:16;3.58;;;2.55;;
36931;SDS011;22847;42.654;23.370;2023-04-19T03:06:41;3.88;;;2.70;;
36931;SDS011;22847;42.654;23.370;2023-04-19T03:09:08;5.88;;;2.72;;
36931;SDS011;22847;42.654;23.370;2023-04-19T03:11:34;5.60;;;2.60;;
36931;SDS011;22847;42.654;23.370;2023-04-19T03:14:00;4.75;;;2.60;;
36931;SDS011;22847;42.654;23.370;2023-04-19T03:16:26;5.80;;;3.00;;
36931;SDS011;22847;42.654;23.370;2023-04-19T03:18:54;4.22;;;3.00;;
36931;SDS011;22847;42.654;23.370;2023-04-19T03:21:20;11.70;;;3.15;;
36931;SDS011;22847;42.654;23.370;2023-04-19T03:23:45;4.03;;;3.20;;
36931;SDS011;22847;42.654;23.370;2023-04-19T03:26:11;6.15;;;3.33;;
36931;SDS011;22847;42.654;23.370;2023-04-19T03:28:36;7.40;;;3.17;;
36931;SDS011;22847;42.654;23.370;2023-04-19T03:31:02;3.90;;;3.03;;
36931;SDS011;22847;42.654;23.370;2023-04-19T03:33:27;6.13;;;3.05;;
36931;SDS011;22847;42.654;23.370;2023-04-19T03:35:53;4.55;;;3.40;;
36931;SDS011;22847;42.654;23.370;2023-04-19T03:38:18;3.95;;;3.30;;
36931;SDS011;22847;42.654;23.370;2023-04-19T03:40:43;4.97;;;3.55;;
36931;SDS011;22847;42.654;23.370;2023-04-19T03:43:09;5.18;;;3.60;;
36931;SDS011;22847;42.654;23.370;2023-04-19T03:45:34;6.57;;;3.55;;
36931;SDS011;22847;42.654;23.370;2023-04-19T03:48:00;5.47;;;3.70;;
36931;SDS011;22847;42.654;23.370;2023-04-19T03:50:25;8.63;;;3.22;;
36931;SDS011;22847;42.654;23.370;2023-04-19T03:52:50;4.03;;;2.80;;
36931;SDS011;22847;42.654;23.370;2023-04-19T03:55:16;6.15;;;3.33;;
36931;SDS011;22847;42.654;23.370;2023-04-19T03:57:41;4.45;;;3.47;;
36931;SDS011;22847;42.654;23.370;2023-04-19T04:00:07;5.65;;;3.42;;
36931;SDS011;22847;42.654;23.370;2023-04-19T04:02:35;8.02;;;4.28;;
36931;SDS011;22847;42.654;23.370;2023-04-19T04:05:01;4.95;;;3.20;;
36931;SDS011;22847;42.654;23.370;2023-04-19T04:07:27;5.80;;;3.60;;
36931;SDS011;22847;42.654;23.370;2023-04-19T04:09:52;5.18;;;3.40;;
36931;SDS011;22847;42.654;23.370;2023-04-19T04:12:18;7.38;;;3.60;;
36931;SDS011;22847;42.654;23.370;2023-04-19T04:14:43;4.47;;;3.47;;
36931;SDS011;22847;42.654;23.370;2023-04-19T04:17:08;4.70;;;3.42;;
36931;SDS011;22847;42.654;23.370;2023-04-19T04:19:34;4.18;;;3.08;;
36931;SDS011;22847;42.654;23.370;2023-04-19T04:21:59;5.03;;;3.40;;
36931;SDS011;22847;42.654;23.370;2023-04-19T04:24:25;7.88;;;3.45;;
36931;SDS011;22847;42.654;23.370;2023-04-19T04:26:51;4.20;;;3.40;;
36931;SDS011;22847;42.654;23.370;2023-04-19T04:29:17;6.93;;;3.63;;
36931;SDS011;22847;42.654;23.370;2023-04-19T04:31:42;5.68;;;3.53;;
36931;SDS011;22847;42.654;23.370;2023-04-19T04:34:08;3.90;;;3.28;;
36931;SDS011;22847;42.654;23.370;2023-04-19T04:36:34;4.80;;;3.30;;
36931;SDS011;22847;42.654;23.370;2023-04-19T04:39:01;3.40;;;3.00;;
36931;SDS011;22847;42.654;23.370;2023-04-19T04:41:27;5.10;;;3.80;;
36931;SDS011;22847;42.654;23.370;2023-04-19T04:43:55;5.28;;;3.63;;
36931;SDS011;22847;42.654;23.370;2023-04-19T04:46:22;6.82;;;3.75;;
36931;SDS011;22847;42.654;23.370;2023-04-19T04:48:48;7.97;;;4.22;;
36931;SDS011;22847;42.654;23.370;2023-04-19T04:51:13;9.50;;;4.78;;
36931;SDS011;22847;42.654;23.370;2023-04-19T04:53:38;6.40;;;4.85;;
36931;SDS011;22847;42.654;23.370;2023-04-19T04:56:04;5.25;;;4.22;;
36931;SDS011;22847;42.654;23.370;2023-04-19T04:58:30;7.32;;;4.57;;
36931;SDS011;22847;42.654;23.370;2023-04-19T05:00:55;9.10;;;6.38;;
36931;SDS011;22847;42.654;23.370;2023-04-19T05:03:20;6.72;;;4.18;;
36931;SDS011;22847;42.654;23.370;2023-04-19T05:05:46;10.05;;;4.03;;
36931;SDS011;22847;42.654;23.370;2023-04-19T05:08:11;9.07;;;4.38;;
36931;SDS011;22847;42.654;23.370;2023-04-19T05:10:36;6.38;;;4.05;;
36931;SDS011;22847;42.654;23.370;2023-04-19T05:13:02;10.45;;;4.05;;
36931;SDS011;22847;42.654;23.370;2023-04-19T05:15:27;5.95;;;4.28;;
36931;SDS011;22847;42.654;23.370;2023-04-19T05:17:53;8.50;;;4.15;;
36931;SDS011;22847;42.654;23.370;2023-04-19T05:20:18;5.38;;;4.22;;
36931;SDS011;22847;42.654;23.370;2023-04-19T05:22:44;6.18;;;4.60;;
36931;SDS011;22847;42.654;23.370;2023-04-19T05:25:09;6.38;;;3.95;;
36931;SDS011;22847;42.654;23.370;2023-04-19T05:27:35;6.68;;;4.65;;
36931;SDS011;22847;42.654;23.370;2023-04-19T05:30:01;7.80;;;4.28;;
36931;SDS011;22847;42.654;23.370;2023-04-19T05:32:27;6.03;;;4.47;;
36931;SDS011;22847;42.654;23.370;2023-04-19T05:34:53;7.38;;;4.18;;
36931;SDS011;22847;42.654;23.370;2023-04-19T05:37:19;6.45;;;4.38;;
36931;SDS011;22847;42.654;23.370;2023-04-19T05:39:44;5.85;;;4.45;;
36931;SDS011;22847;42.654;23.370;2023-04-19T05:42:10;6.25;;;4.38;;
36931;SDS011;22847;42.654;23.370;2023-04-19T05:44:35;5.22;;;3.92;;
36931;SDS011;22847;42.654;23.370;2023-04-19T05:47:00;7.43;;;4.80;;
36931;SDS011;22847;42.654;23.370;2023-04-19T05:49:26;8.88;;;4.43;;
36931;SDS011;22847;42.654;23.370;2023-04-19T05:51:51;9.95;;;4.78;;
36931;SDS011;22847;42.654;23.370;2023-04-19T05:54:18;5.72;;;4.40;;
36931;SDS011;22847;42.654;23.370;2023-04-19T05:56:43;10.20;;;4.43;;
36931;SDS011;22847;42.654;23.370;2023-04-19T05:59:09;6.65;;;4.40;;
36931;SDS011;22847;42.654;23.370;2023-04-19T06:01:35;8.18;;;4.63;;
36931;SDS011;22847;42.654;23.370;2023-04-19T06:04:01;8.63;;;5.28;;
36931;SDS011;22847;42.654;23.370;2023-04-19T06:06:26;7.57;;;5.32;;
36931;SDS011;22847;42.654;23.370;2023-04-19T06:08:52;6.85;;;4.63;;
36931;SDS011;22847;42.654;23.370;2023-04-19T06:11:17;9.48;;;5.10;;
36931;SDS011;22847;42.654;23.370;2023-04-19T06:13:42;9.90;;;5.18;;
36931;SDS011;22847;42.654;23.370;2023-04-19T06:16:09;8.85;;;5.30;;
36931;SDS011;22847;42.654;23.370;2023-04-19T06:18:34;7.30;;;4.45;;
36931;SDS011;22847;42.654;23.370;2023-04-19T06:21:00;6.88;;;4.45;;
36931;SDS011;22847;42.654;23.370;2023-04-19T06:23:25;7.80;;;4.57;;
36931;SDS011;22847;42.654;23.370;2023-04-19T06:25:51;7.53;;;4.82;;
36931;SDS011;22847;42.654;23.370;2023-04-19T06:28:17;7.13;;;4.43;;
36931;SDS011;22847;42.654;23.370;2023-04-19T06:30:42;8.50;;;5.10;;
36931;SDS011;22847;42.654;23.370;2023-04-19T06:33:08;12.73;;;4.90;;
36931;SDS011;22847;42.654;23.370;2023-04-19T06:35:33;6.72;;;5.22;;
36931;SDS011;22847;42.654;23.370;2023-04-19T06:37:59;6.82;;;4.90;;
36931;SDS011;22847;42.654;23.370;2023-04-19T06:40:27;12.27;;;6.07;;
36931;SDS011;22847;42.654;23.370;2023-04-19T06:42:55;6.53;;;5.07;;
36931;SDS011;22847;42.654;23.370;2023-04-19T06:45:21;9.40;;;5.10;;
36931;SDS011;22847;42.654;23.370;2023-04-19T06:47:46;7.15;;;4.60;;
36931;SDS011;22847;42.654;23.370;2023-04-19T06:50:12;6.85;;;5.03;;
36931;SDS011;22847;42.654;23.370;2023-04-19T06:52:37;6.30;;;4.53;;
36931;SDS011;22847;42.654;23.370;2023-04-19T06:55:06;9.70;;;5.22;;
36931;SDS011;22847;42.654;23.370;2023-04-19T06:57:32;6.13;;;4.22;;
36931;SDS011;22847;42.654;23.370;2023-04-19T06:59:57;9.35;;;4.60;;
36931;SDS011;22847;42.654;23.370;2023-04-19T07:02:23;7.90;;;4.57;;
36931;SDS011;22847;42.654;23.370;2023-04-19T07:04:49;7.90;;;4.25;;
36931;SDS011;22847;42.654;23.370;2023-04-19T07:07:14;6.60;;;4.10;;
36931;SDS011;22847;42.654;23.370;2023-04-19T07:09:40;7.75;;;4.72;;
36931;SDS011;22847;42.654;23.370;2023-04-19T07:12:06;6.88;;;4.22;;
36931;SDS011;22847;42.654;23.370;2023-04-19T07:14:31;7.95;;;4.20;;
36931;SDS011;22847;42.654;23.370;2023-04-19T07:16:56;8.48;;;4.80;;
36931;SDS011;22847;42.654;23.370;2023-04-19T07:19:22;4.95;;;3.30;;
36931;SDS011;22847;42.654;23.370;2023-04-19T07:21:47;8.98;;;3.25;;
36931;SDS011;22847;42.654;23.370;2023-04-19T07:24:13;8.02;;;4.10;;
36931;SDS011;22847;42.654;23.370;2023-04-19T07:26:39;5.80;;;3.95;;
36931;SDS011;22847;42.654;23.370;2023-04-19T07:29:04;8.95;;;4.35;;
36931;SDS011;22847;42.654;23.370;2023-04-19T07:31:30;5.72;;;4.05;;
36931;SDS011;22847;42.654;23.370;2023-04-19T07:33:55;5.43;;;3.95;;
36931;SDS011;22847;42.654;23.370;2023-04-19T07:36:21;7.60;;;4.22;;
36931;SDS011;22847;42.654;23.370;2023-04-19T07:38:46;13.60;;;4.35;;
36931;SDS011;22847;42.654;23.370;2023-04-19T07:41:12;6.40;;;4.38;;
36931;SDS011;22847;42.654;23.370;2023-04-19T07:43:37;5.78;;;3.92;;
36931;SDS011;22847;42.654;23.370;2023-04-19T07:46:09;6.28;;;4.18;;
36931;SDS011;22847;42.654;23.370;2023-04-19T07:48:35;6.13;;;3.72;;
36931;SDS011;22847;42.654;23.370;2023-04-19T07:51:11;5.20;;;3.72;;
36931;SDS011;22847;42.654;23.370;2023-04-19T07:53:39;5.20;;;3.20;;
36931;SDS011;22847;42.654;23.370;2023-04-19T07:56:09;5.07;;;3.80;;
36931;SDS011;22847;42.654;23.370;2023-04-19T07:58:35;6.55;;;3.58;;
36931;SDS011;22847;42.654;23.370;2023-04-19T08:01:02;6.38;;;4.20;;
36931;SDS011;22847;42.654;23.370;2023-04-19T08:03:28;7.85;;;4.03;;
36931;SDS011;22847;42.654;23.370;2023-04-19T08:05:54;7.60;;;4.00;;
36931;SDS011;22847;42.654;23.370;2023-04-19T08:08:20;7.00;;;3.88;;
36931;SDS011;22847;42.654;23.370;2023-04-19T08:10:45;4.88;;;3.60;;
36931;SDS011;22847;42.654;23.370;2023-04-19T08:13:11;6.47;;;4.07;;
36931;SDS011;22847;42.654;23.370;2023-04-19T08:15:36;8.15;;;4.20;;
36931;SDS011;22847;42.654;23.370;2023-04-19T08:18:02;6.15;;;3.40;;
36931;SDS011;22847;42.654;23.370;2023-04-19T08:20:30;6.05;;;4.30;;
36931;SDS011;22847;42.654;23.370;2023-04-19T08:22:56;5.45;;;4.20;;
36931;SDS011;22847;42.654;23.370;2023-04-19T08:25:23;9.38;;;4.20;;
36931;SDS011;22847;42.654;23.370;2023-04-19T08:27:53;6.32;;;3.78;;
36931;SDS011;22847;42.654;23.370;2023-04-19T08:30:19;7.18;;;3.60;;
36931;SDS011;22847;42.654;23.370;2023-04-19T08:32:45;8.50;;;4.25;;
36931;SDS011;22847;42.654;23.370;2023-04-19T08:35:10;8.80;;;4.82;;
36931;SDS011;22847;42.654;23.370;2023-04-19T08:37:36;7.20;;;3.85;;
36931;SDS011;22847;42.654;23.370;2023-04-19T08:40:01;7.40;;;3.78;;
36931;SDS011;22847;42.654;23.370;2023-04-19T08:42:27;9.73;;;4.10;;
36931;SDS011;22847;42.654;23.370;2023-04-19T08:44:53;8.75;;;3.60;;
36931;SDS011;22847;42.654;23.370;2023-04-19T08:47:21;7.15;;;3.50;;
36931;SDS011;22847;42.654;23.370;2023-04-19T08:49:48;7.53;;;5.07;;
36931;SDS011;22847;42.654;23.370;2023-04-19T08:52:15;9.05;;;4.32;;
36931;SDS011;22847;42.654;23.370;2023-04-19T08:54:42;6.82;;;4.10;;
36931;SDS011;22847;42.654;23.370;2023-04-19T08:57:08;6.18;;;3.90;;
36931;SDS011;22847;42.654;23.370;2023-04-19T08:59:34;5.90;;;3.88;;
36931;SDS011;22847;42.654;23.370;2023-04-19T09:02:00;8.00;;;4.70;;
36931;SDS011;22847;42.654;23.370;2023-04-19T09:04:25;8.55;;;4.47;;
36931;SDS011;22847;42.654;23.370;2023-04-19T09:06:51;6.50;;;4.15;;
36931;SDS011;22847;42.654;23.370;2023-04-19T09:09:23;7.10;;;4.05;;
36931;SDS011;22847;42.654;23.370;2023-04-19T09:11:53;5.35;;;3.50;;
36931;SDS011;22847;42.654;23.370;2023-04-19T09:14:19;7.22;;;3.70;;
36931;SDS011;22847;42.654;23.370;2023-04-19T09:16:45;8.20;;;3.88;;
36931;SDS011;22847;42.654;23.370;2023-04-19T09:19:12;8.23;;;4.25;;
36931;SDS011;22847;42.654;23.370;2023-04-19T09:21:38;9.07;;;5.95;;
36931;SDS011;22847;42.654;23.370;2023-04-19T09:24:04;6.70;;;3.50;;
36931;SDS011;22847;42.654;23.370;2023-04-19T09:26:30;5.38;;;3.50;;
36931;SDS011;22847;42.654;23.370;2023-04-19T09:29:00;9.00;;;5.80;;
36931;SDS011;22847;42.654;23.370;2023-04-19T09:31:30;10.27;;;7.10;;
36931;SDS011;22847;42.654;23.370;2023-04-19T09:34:10;17.30;;;11.43;;
36931;SDS011;22847;42.654;23.370;2023-04-19T09:36:43;7.25;;;4.25;;
36931;SDS011;22847;42.654;23.370;2023-04-19T09:39:09;6.03;;;3.95;;
36931;SDS011;22847;42.654;23.370;2023-04-19T09:41:48;3.80;;;2.78;;
36931;SDS011;22847;42.654;23.370;2023-04-19T09:44:15;4.03;;;3.00;;
36931;SDS011;22847;42.654;23.370;2023-04-19T09:46:41;5.70;;;2.92;;
36931;SDS011;22847;42.654;23.370;2023-04-19T09:51:44;3.28;;;2.38;;
36931;SDS011;22847;42.654;23.370;2023-04-19T09:54:21;6.00;;;2.80;;
36931;SDS011;22847;42.654;23.370;2023-04-19T09:56:48;4.90;;;3.13;;
36931;SDS011;22847;42.654;23.370;2023-04-19T09:59:14;3.47;;;2.75;;
36931;SDS011;22847;42.654;23.370;2023-04-19T10:02:13;4.60;;;3.05;;
36931;SDS011;22847;42.654;23.370;2023-04-19T10:04:35;3.35;;;2.58;;
36931;SDS011;22847;42.654;23.370;2023-04-19T10:07:01;3.35;;;2.70;;
36931;SDS011;22847;42.654;23.370;2023-04-19T10:09:27;3.05;;;2.25;;
36931;SDS011;22847;42.654;23.370;2023-04-19T10:11:53;5.32;;;2.30;;
36931;SDS011;22847;42.654;23.370;2023-04-19T10:14:23;2.97;;;1.98;;
36931;SDS011;22847;42.654;23.370;2023-04-19T10:16:50;3.50;;;2.85;;
36931;SDS011;22847;42.654;23.370;2023-04-19T10:19:16;5.93;;;2.78;;
36931;SDS011;22847;42.654;23.370;2023-04-19T10:21:43;6.00;;;2.38;;
36931;SDS011;22847;42.654;23.370;2023-04-19T10:24:12;4.10;;;2.35;;
36931;SDS011;22847;42.654;23.370;2023-04-19T10:32:16;2.83;;;2.55;;
36931;SDS011;22847;42.654;23.370;2023-04-19T10:34:41;7.00;;;2.28;;
36931;SDS011;22847;42.654;23.370;2023-04-19T10:37:10;5.00;;;2.47;;
36931;SDS011;22847;42.654;23.370;2023-04-19T10:39:42;7.05;;;2.95;;
36931;SDS011;22847;42.654;23.370;2023-04-19T10:42:09;4.43;;;2.22;;
36931;SDS011;22847;42.654;23.370;2023-04-19T10:44:34;4.32;;;2.10;;
36931;SDS011;22847;42.654;23.370;2023-04-19T10:47:00;5.85;;;2.40;;
36931;SDS011;22847;42.654;23.370;2023-04-19T10:49:28;4.55;;;2.88;;
36931;SDS011;22847;42.654;23.370;2023-04-19T10:51:55;2.78;;;2.20;;
36931;SDS011;22847;42.654;23.370;2023-04-19T10:57:01;3.50;;;1.90;;
36931;SDS011;22847;42.654;23.370;2023-04-19T10:59:31;2.97;;;2.38;;
36931;SDS011;22847;42.654;23.370;2023-04-19T11:02:25;5.65;;;2.90;;
36931;SDS011;22847;42.654;23.370;2023-04-19T11:07:17;3.45;;;2.30;;
36931;SDS011;22847;42.654;23.370;2023-04-19T11:09:44;4.07;;;2.42;;
36931;SDS011;22847;42.654;23.370;2023-04-19T11:12:11;2.97;;;2.28;;
36931;SDS011;22847;42.654;23.370;2023-04-19T11:17:17;4.10;;;2.97;;
36931;SDS011;22847;42.654;23.370;2023-04-19T11:19:52;5.47;;;4.07;;
36931;SDS011;22847;42.654;23.370;2023-04-19T11:24:55;4.43;;;2.63;;
36931;SDS011;22847;42.654;23.370;2023-04-19T11:27:20;4.60;;;2.95;;
36931;SDS011;22847;42.654;23.370;2023-04-19T11:29:46;4.80;;;2.75;;
36931;SDS011;22847;42.654;23.370;2023-04-19T11:32:12;3.80;;;2.63;;
36931;SDS011;22847;42.654;23.370;2023-04-19T11:34:40;3.83;;;2.80;;
36931;SDS011;22847;42.654;23.370;2023-04-19T11:37:05;3.63;;;2.60;;
36931;SDS011;22847;42.654;23.370;2023-04-19T11:39:31;3.15;;;2.42;;
36931;SDS011;22847;42.654;23.370;2023-04-19T11:41:56;4.90;;;3.60;;
36931;SDS011;22847;42.654;23.370;2023-04-19T11:44:23;3.25;;;2.78;;
36931;SDS011;22847;42.654;23.370;2023-04-19T11:46:58;3.15;;;2.30;;
36931;SDS011;22847;42.654;23.370;2023-04-19T11:49:31;5.40;;;2.33;;
36931;SDS011;22847;42.654;23.370;2023-04-19T11:51:58;3.35;;;2.50;;
36931;SDS011;22847;42.654;23.370;2023-04-19T11:54:24;2.28;;;2.05;;
36931;SDS011;22847;42.654;23.370;2023-04-19T12:00:28;7.10;;;2.08;;
36931;SDS011;22847;42.654;23.370;2023-04-19T12:02:54;4.07;;;2.50;;
36931;SDS011;22847;42.654;23.370;2023-04-19T12:05:20;5.57;;;2.47;;
36931;SDS011;22847;42.654;23.370;2023-04-19T12:08:01;1.77;;;1.55;;
36931;SDS011;22847;42.654;23.370;2023-04-19T12:10:32;2.55;;;1.77;;
36931;SDS011;22847;42.654;23.370;2023-04-19T12:12:59;3.50;;;2.03;;
36931;SDS011;22847;42.654;23.370;2023-04-19T12:15:45;3.75;;;2.10;;
36931;SDS011;22847;42.654;23.370;2023-04-19T12:18:10;4.95;;;2.00;;
36931;SDS011;22847;42.654;23.370;2023-04-19T12:20:37;3.03;;;1.88;;
36931;SDS011;22847;42.654;23.370;2023-04-19T12:23:07;2.10;;;1.90;;
36931;SDS011;22847;42.654;23.370;2023-04-19T12:25:35;4.35;;;1.95;;
36931;SDS011;22847;42.654;23.370;2023-04-19T12:28:02;3.08;;;1.95;;
36931;SDS011;22847;42.654;23.370;2023-04-19T12:30:28;5.65;;;2.83;;
36931;SDS011;22847;42.654;23.370;2023-04-19T12:32:54;5.63;;;3.13;;
36931;SDS011;22847;42.654;23.370;2023-04-19T12:35:23;3.90;;;2.92;;
36931;SDS011;22847;42.654;23.370;2023-04-19T12:37:51;6.70;;;3.47;;
36931;SDS011;22847;42.654;23.370;2023-04-19T12:40:17;6.00;;;2.90;;
36931;SDS011;22847;42.654;23.370;2023-04-19T12:42:43;4.20;;;2.70;;
36931;SDS011;22847;42.654;23.370;2023-04-19T12:45:09;4.38;;;2.38;;
36931;SDS011;22847;42.654;23.370;2023-04-19T12:47:36;5.85;;;2.97;;
36931;SDS011;22847;42.654;23.370;2023-04-19T12:50:01;4.63;;;2.50;;
36931;SDS011;22847;42.654;23.370;2023-04-19T12:52:27;6.80;;;2.42;;
36931;SDS011;22847;42.654;23.370;2023-04-19T12:54:52;4.80;;;2.50;;
36931;SDS011;22847;42.654;23.370;2023-04-19T12:57:18;5.40;;;2.70;;
36931;SDS011;22847;42.654;23.370;2023-04-19T12:59:43;3.45;;;2.45;;
36931;SDS011;22847;42.654;23.370;2023-04-19T13:02:08;4.32;;;2.70;;
36931;SDS011;22847;42.654;23.370;2023-04-19T13:04:34;3.70;;;2.70;;
36931;SDS011;22847;42.654;23.370;2023-04-19T13:07:00;2.97;;;2.17;;
36931;SDS011;22847;42.654;23.370;2023-04-19T13:09:26;5.97;;;2.35;;
36931;SDS011;22847;42.654;23.370;2023-04-19T13:11:55;5.47;;;2.83;;
36931;SDS011;22847;42.654;23.370;2023-04-19T13:14:21;4.80;;;2.85;;
36931;SDS011;22847;42.654;23.370;2023-04-19T13:16:48;4.57;;;2.38;;
36931;SDS011;22847;42.654;23.370;2023-04-19T13:19:13;4.00;;;2.67;;
36931;SDS011;22847;42.654;23.370;2023-04-19T13:21:40;4.30;;;2.17;;
36931;SDS011;22847;42.654;23.370;2023-04-19T13:24:05;3.08;;;2.38;;
36931;SDS011;22847;42.654;23.370;2023-04-19T13:26:31;13.73;;;7.82;;
36931;SDS011;22847;42.654;23.370;2023-04-19T13:28:58;4.18;;;2.53;;
36931;SDS011;22847;42.654;23.370;2023-04-19T13:31:24;3.33;;;2.25;;
36931;SDS011;22847;42.654;23.370;2023-04-19T13:33:50;8.30;;;4.15;;
36931;SDS011;22847;42.654;23.370;2023-04-19T13:36:16;3.08;;;1.95;;
36931;SDS011;22847;42.654;23.370;2023-04-19T13:38:41;4.72;;;2.20;;
36931;SDS011;22847;42.654;23.370;2023-04-19T13:41:07;4.00;;;2.20;;
36931;SDS011;22847;42.654;23.370;2023-04-19T13:43:32;2.83;;;1.95;;
36931;SDS011;22847;42.654;23.370;2023-04-19T13:45:58;3.00;;;2.00;;
36931;SDS011;22847;42.654;23.370;2023-04-19T13:48:23;8.52;;;3.55;;
36931;SDS011;22847;42.654;23.370;2023-04-19T13:50:52;4.93;;;2.15;;
36931;SDS011;22847;42.654;23.370;2023-04-19T13:53:19;3.83;;;2.35;;
36931;SDS011;22847;42.654;23.370;2023-04-19T13:55:44;2.97;;;2.28;;
36931;SDS011;22847;42.654;23.370;2023-04-19T13:58:10;6.30;;;2.72;;
36931;SDS011;22847;42.654;23.370;2023-04-19T14:00:36;4.30;;;1.90;;
36931;SDS011;22847;42.654;23.370;2023-04-19T14:03:01;5.78;;;3.05;;
36931;SDS011;22847;42.654;23.370;2023-04-19T14:05:27;10.68;;;6.68;;
36931;SDS011;22847;42.654;23.370;2023-04-19T14:07:52;9.63;;;3.42;;
36931;SDS011;22847;42.654;23.370;2023-04-19T14:10:18;3.83;;;2.58;;
36931;SDS011;22847;42.654;23.370;2023-04-19T14:12:43;3.25;;;2.13;;
36931;SDS011;22847;42.654;23.370;2023-04-19T14:15:09;3.42;;;2.45;;
36931;SDS011;22847;42.654;23.370;2023-04-19T14:17:35;6.00;;;2.88;;
36931;SDS011;22847;42.654;23.370;2023-04-19T14:20:01;6.40;;;2.50;;
36931;SDS011;22847;42.654;23.370;2023-04-19T14:22:26;6.78;;;3.08;;
36931;SDS011;22847;42.654;23.370;2023-04-19T14:24:51;4.20;;;2.72;;
36931;SDS011;22847;42.654;23.370;2023-04-19T14:27:17;4.05;;;2.38;;
36931;SDS011;22847;42.654;23.370;2023-04-19T14:29:43;3.30;;;2.10;;
36931;SDS011;22847;42.654;23.370;2023-04-19T14:32:08;3.35;;;2.17;;
36931;SDS011;22847;42.654;23.370;2023-04-19T14:34:34;4.75;;;3.13;;
36931;SDS011;22847;42.654;23.370;2023-04-19T14:36:59;4.95;;;2.83;;
36931;SDS011;22847;42.654;23.370;2023-04-19T14:39:25;3.42;;;2.55;;
36931;SDS011;22847;42.654;23.370;2023-04-19T14:41:51;4.50;;;2.03;;
36931;SDS011;22847;42.654;23.370;2023-04-19T14:44:16;3.55;;;2.50;;
36931;SDS011;22847;42.654;23.370;2023-04-19T14:46:41;2.88;;;2.13;;
36931;SDS011;22847;42.654;23.370;2023-04-19T14:49:07;3.83;;;2.50;;
36931;SDS011;22847;42.654;23.370;2023-04-19T14:51:32;5.22;;;2.45;;